createdAt,value
2019-03-11T00:00:27.422Z,1.30
2019-03-11T00:02:56.015Z,2.07
2019-03-11T00:05:24.434Z,1.47
2019-03-11T00:07:53.150Z,1.87
2019-03-11T00:10:21.588Z,1.67
2019-03-11T00:12:50.320Z,1.70
2019-03-11T00:15:18.881Z,2.10
2019-03-11T00:17:47.306Z,1.80
2019-03-11T00:20:16.054Z,1.67
2019-03-11T00:22:44.627Z,2.13
2019-03-11T00:25:13.204Z,1.27
2019-03-11T00:27:41.653Z,1.93
2019-03-11T00:30:13.733Z,2.03
2019-03-11T00:32:42.466Z,1.97
2019-03-11T00:35:11.078Z,2.00
2019-03-11T00:37:39.710Z,1.37
2019-03-11T00:40:11.229Z,2.50
2019-03-11T00:42:40.472Z,1.70
2019-03-11T00:45:14.254Z,1.53
2019-03-11T00:47:42.919Z,1.73
2019-03-11T00:50:12.318Z,1.87
2019-03-11T00:52:40.990Z,2.03
2019-03-11T00:55:11.027Z,2.27
2019-03-11T00:57:39.496Z,2.87
2019-03-11T01:00:11.430Z,3.60
2019-03-11T01:02:40.358Z,2.10
2019-03-11T01:05:08.939Z,2.63
2019-03-11T01:07:37.562Z,2.80
2019-03-11T01:10:08.763Z,2.23
2019-03-11T01:12:37.225Z,2.50
2019-03-11T01:15:08.439Z,2.90
2019-03-11T01:17:37.177Z,2.20
2019-03-11T01:20:10.729Z,2.60
2019-03-11T01:22:39.402Z,2.30
2019-03-11T01:25:09.785Z,1.80
2019-03-11T01:27:38.286Z,2.10
2019-03-11T01:30:14.541Z,2.57
2019-03-11T01:32:43.037Z,2.50
2019-03-11T01:35:11.615Z,2.87
2019-03-11T01:37:40.106Z,2.57
2019-03-11T01:40:18.374Z,4.23
2019-03-11T01:42:47.073Z,2.20
2019-03-11T01:45:16.827Z,2.43
2019-03-11T01:47:45.564Z,2.80
2019-03-11T01:50:14.863Z,2.20
2019-03-11T01:52:43.590Z,3.00
2019-03-11T01:55:13.288Z,2.40
2019-03-11T01:57:41.908Z,2.57
2019-03-11T02:00:15.436Z,1.97
2019-03-11T02:02:43.856Z,3.10
2019-03-11T02:05:12.662Z,3.03
2019-03-11T02:07:41.414Z,2.17
2019-03-11T02:10:17.944Z,2.50
2019-03-11T02:12:47.090Z,3.27
2019-03-11T02:15:17.813Z,3.27
2019-03-11T02:17:46.483Z,2.20
2019-03-11T02:20:16.253Z,2.60
2019-03-11T02:22:44.987Z,3.60
2019-03-11T02:25:14.761Z,2.53
2019-03-11T02:27:43.224Z,2.40
2019-03-11T02:30:13.568Z,2.07
2019-03-11T02:32:42.004Z,4.70
2019-03-11T02:35:10.686Z,2.80
2019-03-11T02:37:39.065Z,2.50
2019-03-11T02:40:15.177Z,3.80
2019-03-11T02:42:43.614Z,2.30
2019-03-11T02:45:12.126Z,2.43
2019-03-11T02:47:40.628Z,2.27
2019-03-11T02:50:10.605Z,2.47
2019-03-11T02:52:39.092Z,2.17
2019-03-11T02:55:07.816Z,2.57
2019-03-11T02:57:36.336Z,2.43
2019-03-11T03:00:11.873Z,2.10
2019-03-11T03:02:56.771Z,2.27
2019-03-11T03:05:29.484Z,2.80
2019-03-11T03:07:58.160Z,2.40
2019-03-11T03:10:26.849Z,2.57
2019-03-11T03:12:55.383Z,2.40
2019-03-11T03:15:24.534Z,2.07
2019-03-11T03:17:53.195Z,2.37
2019-03-11T03:20:23.397Z,3.77
2019-03-11T03:22:51.836Z,2.47
2019-03-11T03:25:32.884Z,1.57
2019-03-11T03:27:50.480Z,2.70
2019-03-11T03:30:19.758Z,4.47
2019-03-11T03:32:48.340Z,2.10
2019-03-11T03:35:16.870Z,2.17
2019-03-11T03:37:45.412Z,2.03
2019-03-11T03:40:16.184Z,3.23
2019-03-11T03:42:44.796Z,3.07
2019-03-11T03:45:39.435Z,1.87
2019-03-11T03:48:07.937Z,2.17
2019-03-11T03:50:38.043Z,2.83
2019-03-11T03:53:07.601Z,2.20
2019-03-11T03:55:36.107Z,2.53
2019-03-11T03:58:04.860Z,2.43
2019-03-11T04:00:33.361Z,1.67
2019-03-11T04:03:01.835Z,2.00
2019-03-11T04:05:30.258Z,1.87
2019-03-11T04:07:58.683Z,1.17
2019-03-11T04:10:27.593Z,1.30
2019-03-11T04:12:56.068Z,1.30
2019-03-11T04:15:24.709Z,1.83
2019-03-11T04:17:53.534Z,0.70
2019-03-11T04:20:23.997Z,0.60
2019-03-11T04:22:52.722Z,0.77
2019-03-11T04:25:21.426Z,0.50
2019-03-11T04:27:49.996Z,0.73
2019-03-11T04:30:23.214Z,0.80
2019-03-11T04:32:51.931Z,0.30
2019-03-11T04:35:22.087Z,0.63
2019-03-11T04:37:50.479Z,0.30
2019-03-11T04:40:19.001Z,0.40
2019-03-11T04:42:47.409Z,0.33
2019-03-11T04:45:16.666Z,0.50
2019-03-11T04:47:45.513Z,0.50
2019-03-11T04:50:18.129Z,0.50
2019-03-11T04:52:46.578Z,0.37
2019-03-11T04:55:15.862Z,0.30
2019-03-11T04:57:50.413Z,0.40
2019-03-11T05:00:24.533Z,0.37
2019-03-11T05:02:52.941Z,0.53
2019-03-11T05:05:21.402Z,0.73
2019-03-11T05:07:50.416Z,0.40
2019-03-11T05:10:18.918Z,0.40
2019-03-11T05:12:47.320Z,0.30
2019-03-11T05:15:16.096Z,0.60
2019-03-11T05:17:44.955Z,0.47
2019-03-11T05:20:15.730Z,0.60
2019-03-11T05:22:44.168Z,0.40
2019-03-11T05:25:16.226Z,0.40
2019-03-11T05:27:44.988Z,0.67
2019-03-11T05:30:21.097Z,0.63
2019-03-11T05:32:49.568Z,0.40
2019-03-11T05:35:18.194Z,0.50
2019-03-11T05:37:46.682Z,0.50
2019-03-11T05:40:18.517Z,0.40
2019-03-11T05:42:47.069Z,0.90
2019-03-11T05:45:20.310Z,0.40
2019-03-11T05:47:48.725Z,0.40
2019-03-11T05:50:17.992Z,0.37
2019-03-11T05:52:46.980Z,0.50
2019-03-11T05:55:16.001Z,0.40
2019-03-11T05:57:44.474Z,0.60
2019-03-11T06:00:17.421Z,0.80
2019-03-11T06:02:45.844Z,0.60
2019-03-11T06:05:14.519Z,0.80
2019-03-11T06:07:43.289Z,0.60
2019-03-11T06:10:13.778Z,0.40
2019-03-11T06:12:42.276Z,0.43
2019-03-11T06:15:12.779Z,0.70
2019-03-11T06:17:41.373Z,1.23
2019-03-11T06:20:30.244Z,0.50
2019-03-11T06:22:59.865Z,0.50
2019-03-11T06:25:28.281Z,0.50
2019-03-11T06:27:57.030Z,0.60
2019-03-11T06:30:25.654Z,1.00
2019-03-11T06:32:54.376Z,0.80
2019-03-11T06:35:22.851Z,0.57
2019-03-11T06:37:51.259Z,1.50
2019-03-11T06:40:19.679Z,0.43
2019-03-11T06:42:48.219Z,0.90
2019-03-11T06:45:17.038Z,0.57
2019-03-11T06:47:45.457Z,0.80
2019-03-11T06:50:15.857Z,0.80
2019-03-11T06:52:44.266Z,0.97
2019-03-11T06:55:13.399Z,0.90
2019-03-11T06:57:41.951Z,0.70
2019-03-11T07:00:18.036Z,1.23
2019-03-11T07:02:46.594Z,0.90
2019-03-11T07:05:20.358Z,0.80
2019-03-11T07:07:45.326Z,0.63
2019-03-11T07:10:17.610Z,0.80
2019-03-11T07:12:46.730Z,0.90
2019-03-11T07:15:16.177Z,1.23
2019-03-11T07:17:45.094Z,0.67
2019-03-11T07:20:21.278Z,1.00
2019-03-11T07:22:49.828Z,1.03
2019-03-11T07:25:18.252Z,0.90
2019-03-11T07:27:46.663Z,0.90
2019-03-11T07:30:17.430Z,1.20
2019-03-11T07:32:45.909Z,1.20
2019-03-11T07:35:14.388Z,0.83
2019-03-11T07:37:42.853Z,0.90
2019-03-11T07:40:13.149Z,1.13
2019-03-11T07:42:41.580Z,0.73
2019-03-11T07:45:14.137Z,0.80
2019-03-11T07:47:42.555Z,2.20
2019-03-11T07:50:13.337Z,1.17
2019-03-11T07:52:41.823Z,1.23
2019-03-11T07:55:11.915Z,1.37
2019-03-11T07:57:41.400Z,1.00
2019-03-11T08:00:16.083Z,1.10
2019-03-11T08:02:44.540Z,0.67
2019-03-11T08:05:13.086Z,1.63
2019-03-11T08:07:41.580Z,1.23
2019-03-11T08:10:12.426Z,0.87
2019-03-11T08:12:40.832Z,1.10
2019-03-11T08:15:13.741Z,1.10
2019-03-11T08:17:42.427Z,1.37
2019-03-11T08:20:12.158Z,1.47
2019-03-11T08:22:40.685Z,0.80
2019-03-11T08:25:13.766Z,0.73
2019-03-11T08:27:42.249Z,1.00
2019-03-11T08:30:23.610Z,1.40
2019-03-11T08:32:52.275Z,1.20
2019-03-11T08:35:20.679Z,0.90
2019-03-11T08:37:49.453Z,1.50
2019-03-11T08:40:19.138Z,1.00
2019-03-11T08:42:48.294Z,1.10
2019-03-11T08:45:18.518Z,1.80
2019-03-11T08:47:47.068Z,1.67
2019-03-11T08:50:17.118Z,1.80
2019-03-11T08:52:45.779Z,1.23
2019-03-11T08:55:14.436Z,1.20
2019-03-11T08:57:42.857Z,0.83
2019-03-11T09:00:18.594Z,1.00
2019-03-11T09:02:47.010Z,1.97
2019-03-11T09:05:15.876Z,1.00
2019-03-11T09:07:44.629Z,0.90
2019-03-11T09:10:20.042Z,1.20
2019-03-11T09:12:48.861Z,1.20
2019-03-11T09:15:21.907Z,1.20
2019-03-11T09:17:50.500Z,0.77
2019-03-11T09:20:19.623Z,1.00
2019-03-11T09:22:48.102Z,1.20
2019-03-11T09:25:26.322Z,1.40
2019-03-11T09:27:55.069Z,1.17
2019-03-11T09:30:23.919Z,1.20
2019-03-11T09:32:52.457Z,1.10
2019-03-11T09:35:21.140Z,1.13
2019-03-11T09:37:49.752Z,1.10
2019-03-11T09:40:19.526Z,1.20
2019-03-11T09:42:47.969Z,1.13
2019-03-11T09:45:18.396Z,1.17
2019-03-11T09:47:47.457Z,1.10
2019-03-11T09:50:16.439Z,1.37
2019-03-11T09:52:45.107Z,1.33
2019-03-11T09:55:19.448Z,1.70
2019-03-11T09:57:47.871Z,1.90
2019-03-11T10:00:22.233Z,1.40
2019-03-11T10:02:52.875Z,1.20
2019-03-11T10:05:21.024Z,1.13
2019-03-11T10:07:49.635Z,1.10
2019-03-11T10:10:24.052Z,1.20
2019-03-11T10:12:52.821Z,1.20
2019-03-11T10:15:22.203Z,0.90
2019-03-11T10:17:51.124Z,1.20
2019-03-11T10:20:20.305Z,1.20
2019-03-11T10:22:49.166Z,1.13
2019-03-11T10:25:18.256Z,0.90
2019-03-11T10:27:46.873Z,0.93
2019-03-11T10:30:22.862Z,0.70
2019-03-11T10:32:51.603Z,1.10
2019-03-11T10:35:31.725Z,1.10
2019-03-11T10:37:51.192Z,1.27
2019-03-11T10:40:28.041Z,1.10
2019-03-11T10:42:56.693Z,0.60
2019-03-11T10:45:31.507Z,1.57
2019-03-11T10:47:56.053Z,0.80
2019-03-11T10:50:25.150Z,1.10
2019-03-11T10:52:53.733Z,0.70
2019-03-11T10:55:23.193Z,1.50
2019-03-11T10:57:51.825Z,1.47
2019-03-11T11:00:32.453Z,1.10
2019-03-11T11:03:01.049Z,1.03
2019-03-11T11:05:30.395Z,1.67
2019-03-11T11:07:58.872Z,1.00
2019-03-11T11:10:27.774Z,1.27
2019-03-11T11:12:56.217Z,0.90
2019-03-11T11:15:25.410Z,1.07
2019-03-11T11:17:54.503Z,1.30
2019-03-11T11:20:23.622Z,0.93
2019-03-11T11:22:53.032Z,0.90
2019-03-11T11:25:23.115Z,1.27
2019-03-11T11:27:51.799Z,1.13
2019-03-11T11:30:24.646Z,1.17
2019-03-11T11:32:54.208Z,0.73
2019-03-11T11:35:22.636Z,1.33
2019-03-11T11:37:51.872Z,0.90
2019-03-11T11:40:25.085Z,1.13
2019-03-11T11:42:53.558Z,1.20
2019-03-11T11:45:25.754Z,0.97
2019-03-11T11:47:54.512Z,1.07
2019-03-11T11:50:23.921Z,0.90
2019-03-11T11:52:52.992Z,0.90
2019-03-11T11:55:22.663Z,1.10
2019-03-11T11:57:51.746Z,1.27
2019-03-11T12:00:23.291Z,1.70
2019-03-11T12:02:52.061Z,1.23
2019-03-11T12:05:20.521Z,1.43
2019-03-11T12:07:49.015Z,1.30
2019-03-11T12:10:24.521Z,0.90
2019-03-11T12:12:53.070Z,0.80
2019-03-11T12:15:21.693Z,1.30
2019-03-11T12:17:50.327Z,1.27
2019-03-11T12:20:21.835Z,1.10
2019-03-11T12:22:50.484Z,1.13
2019-03-11T12:25:19.226Z,1.10
2019-03-11T12:27:53.732Z,1.10
2019-03-11T12:30:28.375Z,1.33
2019-03-11T12:32:58.116Z,0.83
2019-03-11T12:35:26.826Z,1.00
2019-03-11T12:37:56.483Z,1.13
2019-03-11T12:40:25.086Z,0.93
2019-03-11T12:42:53.809Z,1.77
2019-03-11T12:45:26.013Z,1.10
2019-03-11T12:47:54.498Z,1.07
2019-03-11T12:50:25.286Z,1.10
2019-03-11T12:52:53.757Z,1.03
2019-03-11T12:55:22.432Z,1.13
2019-03-11T12:57:50.942Z,1.10
2019-03-11T13:00:24.513Z,1.10
2019-03-11T13:02:53.193Z,1.10
2019-03-11T13:05:23.248Z,1.00
2019-03-11T13:07:52.028Z,1.07
2019-03-11T13:10:23.734Z,1.17
2019-03-11T13:12:52.601Z,1.00
2019-03-11T13:15:21.543Z,1.40
2019-03-11T13:17:50.118Z,0.90
2019-03-11T13:20:32.667Z,0.97
2019-03-11T13:23:01.113Z,0.90
2019-03-11T13:25:29.605Z,0.90
2019-03-11T13:27:58.136Z,0.90
2019-03-11T13:30:27.193Z,0.80
2019-03-11T13:32:55.761Z,1.30
2019-03-11T13:35:25.423Z,0.93
2019-03-11T13:37:54.057Z,0.90
2019-03-11T13:40:22.538Z,0.80
2019-03-11T13:42:51.661Z,1.10
2019-03-11T13:45:20.404Z,0.90
2019-03-11T13:47:48.979Z,1.37
2019-03-11T13:50:18.814Z,0.80
2019-03-11T13:52:47.316Z,1.73
2019-03-11T13:55:17.150Z,0.80
2019-03-11T13:57:46.350Z,0.70
2019-03-11T14:00:18.123Z,1.07
2019-03-11T14:02:46.950Z,1.20
2019-03-11T14:05:15.465Z,1.60
2019-03-11T14:07:43.952Z,1.13
2019-03-11T14:10:13.304Z,1.10
2019-03-11T14:12:41.802Z,1.17
2019-03-11T14:15:20.124Z,0.90
2019-03-11T14:17:48.919Z,1.00
2019-03-11T14:20:17.624Z,1.13
2019-03-11T14:22:46.150Z,0.83
2019-03-11T14:25:15.250Z,1.07
2019-03-11T14:27:43.727Z,1.10
2019-03-11T14:30:22.121Z,1.10
2019-03-11T14:32:50.785Z,1.27
2019-03-11T14:35:19.940Z,0.90
2019-03-11T14:37:48.636Z,1.30
2019-03-11T14:40:21.783Z,1.10
2019-03-11T14:42:52.540Z,1.17
2019-03-11T14:45:22.066Z,1.07
2019-03-11T14:47:50.796Z,1.10
2019-03-11T14:50:19.398Z,1.00
2019-03-11T14:52:48.085Z,1.37
2019-03-11T14:55:17.190Z,1.30
2019-03-11T14:57:45.670Z,1.17
2019-03-11T15:00:19.146Z,1.10
2019-03-11T15:02:48.585Z,1.33
2019-03-11T15:05:17.681Z,0.87
2019-03-11T15:07:46.369Z,1.07
2019-03-11T15:10:16.204Z,0.80
2019-03-11T15:12:44.722Z,1.00
2019-03-11T15:15:25.707Z,1.10
2019-03-11T15:17:54.327Z,1.00
2019-03-11T15:20:22.732Z,1.07
2019-03-11T15:22:51.212Z,1.07
2019-03-11T15:25:20.020Z,1.43
2019-03-11T15:27:48.875Z,1.10
2019-03-11T15:30:20.647Z,1.20
2019-03-11T15:32:49.307Z,1.20
2019-03-11T15:35:17.775Z,1.13
2019-03-11T15:37:46.293Z,1.10
2019-03-11T15:40:18.425Z,1.60
2019-03-11T15:42:46.937Z,1.00
2019-03-11T15:45:16.364Z,1.17
2019-03-11T15:47:44.776Z,1.60
2019-03-11T15:50:29.760Z,0.93
2019-03-11T15:52:58.399Z,0.90
2019-03-11T15:55:27.081Z,1.13
2019-03-11T15:57:55.553Z,1.20
2019-03-11T16:00:24.535Z,1.37
2019-03-11T16:02:53.481Z,2.47
2019-03-11T16:05:25.646Z,1.10
2019-03-11T16:07:54.496Z,0.90
2019-03-11T16:10:22.965Z,1.00
2019-03-11T16:12:51.367Z,1.30
2019-03-11T16:15:20.133Z,0.93
2019-03-11T16:17:48.899Z,1.10
2019-03-11T16:20:24.600Z,1.07
2019-03-11T16:22:53.253Z,0.80
2019-03-11T16:25:21.844Z,1.10
2019-03-11T16:27:50.502Z,0.97
2019-03-11T16:30:20.634Z,1.10
2019-03-11T16:32:58.365Z,1.60
2019-03-11T16:35:20.555Z,1.10
2019-03-11T16:37:49.170Z,1.73
2019-03-11T16:40:17.801Z,1.20
2019-03-11T16:42:46.449Z,1.90
2019-03-11T16:45:17.467Z,1.43
2019-03-11T16:47:46.699Z,1.07
2019-03-11T16:50:19.194Z,1.57
2019-03-11T16:52:47.830Z,2.80
2019-03-11T16:55:37.402Z,1.27
2019-03-11T16:58:05.861Z,1.90
2019-03-11T17:00:39.144Z,1.43
2019-03-11T17:03:07.929Z,1.43
2019-03-11T17:05:36.374Z,1.30
2019-03-11T17:08:04.931Z,1.37
2019-03-11T17:10:33.436Z,1.60
2019-03-11T17:13:02.063Z,1.83
2019-03-11T17:15:30.766Z,1.57
2019-03-11T17:17:59.550Z,1.57
2019-03-11T17:20:27.934Z,1.47
2019-03-11T17:22:56.560Z,0.83
2019-03-11T17:25:24.997Z,1.37
2019-03-11T17:27:53.466Z,1.00
2019-03-11T17:30:26.131Z,0.97
2019-03-11T17:32:54.551Z,1.77
2019-03-11T17:35:23.034Z,1.30
2019-03-11T17:37:51.473Z,1.20
2019-03-11T17:40:21.080Z,1.37
2019-03-11T17:42:49.681Z,1.70
2019-03-11T17:45:18.416Z,1.40
2019-03-11T17:47:47.880Z,1.80
2019-03-11T17:50:18.893Z,1.10
2019-03-11T17:52:47.803Z,1.50
2019-03-11T17:55:17.268Z,1.23
2019-03-11T17:57:46.055Z,1.60
2019-03-11T18:00:21.915Z,1.30
2019-03-11T18:02:51.254Z,1.60
2019-03-11T18:05:19.706Z,2.03
2019-03-11T18:07:48.141Z,1.20
2019-03-11T18:10:16.590Z,1.87
2019-03-11T18:12:45.212Z,2.00
2019-03-11T18:15:14.619Z,1.23
2019-03-11T18:17:43.391Z,1.53
2019-03-11T18:20:18.961Z,1.40
2019-03-11T18:22:47.540Z,1.80
2019-03-11T18:25:20.717Z,1.63
2019-03-11T18:27:49.645Z,1.40
2019-03-11T18:30:20.009Z,1.10
2019-03-11T18:32:48.786Z,1.47
2019-03-11T18:35:17.374Z,1.43
2019-03-11T18:37:45.753Z,1.50
2019-03-11T18:40:16.677Z,1.63
2019-03-11T18:42:45.401Z,1.30
2019-03-11T18:45:14.712Z,1.67
2019-03-11T18:47:43.593Z,1.93
2019-03-11T18:50:25.687Z,1.23
2019-03-11T18:52:54.340Z,1.70
2019-03-11T18:55:23.700Z,1.70
2019-03-11T18:57:52.192Z,1.53
2019-03-11T19:00:22.162Z,1.70
2019-03-11T19:02:50.722Z,1.83
2019-03-11T19:05:20.807Z,1.70
2019-03-11T19:07:49.242Z,1.53
2019-03-11T19:10:18.003Z,1.50
2019-03-11T19:12:46.770Z,1.60
2019-03-11T19:15:16.870Z,1.70
2019-03-11T19:17:45.455Z,1.57
2019-03-11T19:20:21.773Z,1.60
2019-03-11T19:22:50.385Z,1.43
2019-03-11T19:25:19.102Z,2.00
2019-03-11T19:27:48.043Z,2.40
2019-03-11T19:30:21.234Z,2.07
2019-03-11T19:32:49.692Z,2.27
2019-03-11T19:35:19.095Z,2.17
2019-03-11T19:37:47.714Z,1.60
2019-03-11T19:40:21.498Z,2.40
2019-03-11T19:42:50.145Z,2.00
2019-03-11T19:45:18.568Z,2.00
2019-03-11T19:47:47.235Z,2.10
2019-03-11T19:50:17.023Z,1.83
2019-03-11T19:52:57.274Z,1.90
2019-03-11T19:55:16.022Z,2.10
2019-03-11T19:57:44.454Z,2.53
2019-03-11T20:00:19.535Z,3.57
2019-03-11T20:02:48.500Z,2.60
2019-03-11T20:05:22.488Z,2.33
2019-03-11T20:07:50.909Z,2.23
2019-03-11T20:10:19.809Z,2.30
2019-03-11T20:12:48.340Z,3.20
2019-03-11T20:15:17.106Z,2.20
2019-03-11T20:17:46.190Z,2.50
2019-03-11T20:20:16.492Z,1.87
2019-03-11T20:22:45.015Z,2.60
2019-03-11T20:25:20.251Z,2.93
2019-03-11T20:27:48.649Z,2.73
2019-03-11T20:30:21.634Z,2.37
2019-03-11T20:32:50.105Z,3.03
2019-03-11T20:35:18.670Z,2.40
2019-03-11T20:37:47.461Z,2.70
2019-03-11T20:40:16.053Z,2.80
2019-03-11T20:42:44.818Z,2.57
2019-03-11T20:45:15.774Z,2.93
2019-03-11T20:47:44.862Z,2.67
2019-03-11T20:50:14.525Z,2.83
2019-03-11T20:52:43.035Z,3.00
2019-03-11T20:55:13.659Z,3.40
2019-03-11T20:57:42.906Z,2.87
2019-03-11T21:00:21.932Z,2.87
2019-03-11T21:02:50.776Z,2.33
2019-03-11T21:05:39.292Z,2.43
2019-03-11T21:08:07.747Z,2.43
2019-03-11T21:10:36.181Z,2.93
2019-03-11T21:13:04.790Z,1.90
2019-03-11T21:15:33.462Z,2.60
2019-03-11T21:18:01.882Z,2.50
2019-03-11T21:20:30.688Z,2.63
2019-03-11T21:22:59.157Z,1.90
2019-03-11T21:25:27.719Z,1.90
2019-03-11T21:27:56.219Z,1.90
2019-03-11T21:30:26.018Z,2.37
2019-03-11T21:32:54.593Z,1.97
2019-03-11T21:35:23.591Z,1.60
2019-03-11T21:37:52.134Z,2.70
2019-03-11T21:40:24.260Z,2.43
2019-03-11T21:42:53.184Z,2.80
2019-03-11T21:45:33.251Z,2.33
2019-03-11T21:47:52.012Z,2.63
2019-03-11T21:50:28.597Z,2.10
2019-03-11T21:52:57.401Z,2.20
2019-03-11T21:55:25.800Z,2.10
2019-03-11T21:57:54.303Z,2.60
2019-03-11T22:00:33.577Z,1.47
2019-03-11T22:02:54.184Z,1.90
2019-03-11T22:05:22.895Z,2.10
2019-03-11T22:07:51.362Z,2.70
2019-03-11T22:10:20.505Z,2.13
2019-03-11T22:12:49.190Z,2.30
2019-03-11T22:15:19.068Z,2.60
2019-03-11T22:17:47.701Z,2.30
2019-03-11T22:20:19.142Z,2.30
2019-03-11T22:22:47.548Z,2.57
2019-03-11T22:25:16.898Z,2.27
2019-03-11T22:27:45.534Z,3.17
2019-03-11T22:30:18.137Z,2.10
2019-03-11T22:32:46.838Z,1.97
2019-03-11T22:35:15.262Z,2.40
2019-03-11T22:37:43.756Z,2.33
2019-03-11T22:40:13.386Z,1.80
2019-03-11T22:42:42.206Z,1.90
2019-03-11T22:45:22.071Z,2.30
2019-03-11T22:47:51.800Z,1.93
2019-03-11T22:50:20.949Z,1.80
2019-03-11T22:52:49.419Z,1.90
2019-03-11T22:55:19.846Z,2.30
2019-03-11T22:57:48.470Z,2.73
2019-03-11T23:00:23.241Z,1.87
2019-03-11T23:02:52.685Z,2.00
2019-03-11T23:05:21.073Z,1.83
2019-03-11T23:07:49.786Z,2.10
2019-03-11T23:10:18.186Z,3.23
2019-03-11T23:12:46.577Z,2.23
2019-03-11T23:15:14.976Z,2.10
2019-03-11T23:17:43.417Z,1.57
2019-03-11T23:20:12.118Z,2.77
2019-03-11T23:22:40.508Z,1.73
2019-03-11T23:25:08.956Z,2.17
2019-03-11T23:27:37.354Z,2.10
2019-03-11T23:30:08.728Z,2.00
2019-03-11T23:32:37.577Z,2.33
2019-03-11T23:35:06.912Z,1.93
2019-03-11T23:37:35.530Z,1.80
2019-03-11T23:40:05.542Z,1.87
2019-03-11T23:42:33.941Z,2.37
2019-03-11T23:45:02.330Z,2.13
2019-03-11T23:47:31.226Z,2.00
2019-03-11T23:49:59.629Z,2.27
2019-03-11T23:52:28.019Z,2.30
2019-03-11T23:54:56.429Z,2.27
2019-03-11T23:57:24.816Z,3.07
2019-03-11T23:59:53.205Z,2.87
